sensor_id;sensor_type;location;lat;lon;timestamp;temperature;humidity
34644;DHT22;26931;43.498;-1.506;2023-04-06T00:00:32;11.00;89.80
34644;DHT22;26931;43.498;-1.506;2023-04-06T00:02:58;11.20;89.60
34644;DHT22;26931;43.498;-1.506;2023-04-06T00:05:24;10.80;89.70
34644;DHT22;26931;43.498;-1.506;2023-04-06T00:07:50;11.00;90.10
34644;DHT22;26931;43.498;-1.506;2023-04-06T00:10:16;10.80;90.00
34644;DHT22;26931;43.498;-1.506;2023-04-06T00:12:42;10.90;90.00
34644;DHT22;26931;43.498;-1.506;2023-04-06T00:15:08;10.90;90.00
34644;DHT22;26931;43.498;-1.506;2023-04-06T00:17:34;10.80;90.00
34644;DHT22;26931;43.498;-1.506;2023-04-06T00:20:00;10.90;90.20
34644;DHT22;26931;43.498;-1.506;2023-04-06T00:22:26;10.90;90.00
34644;DHT22;26931;43.498;-1.506;2023-04-06T00:24:52;11.00;89.90
34644;DHT22;26931;43.498;-1.506;2023-04-06T00:27:18;11.10;89.90
34644;DHT22;26931;43.498;-1.506;2023-04-06T00:29:44;11.00;89.90
34644;DHT22;26931;43.498;-1.506;2023-04-06T00:32:10;11.10;90.00
34644;DHT22;26931;43.498;-1.506;2023-04-06T00:34:36;10.90;89.70
34644;DHT22;26931;43.498;-1.506;2023-04-06T00:37:02;10.90;89.90
34644;DHT22;26931;43.498;-1.506;2023-04-06T00:39:28;10.90;90.00
34644;DHT22;26931;43.498;-1.506;2023-04-06T00:41:54;10.80;89.90
34644;DHT22;26931;43.498;-1.506;2023-04-06T00:44:22;10.80;90.10
34644;DHT22;26931;43.498;-1.506;2023-04-06T00:46:48;10.80;90.10
34644;DHT22;26931;43.498;-1.506;2023-04-06T00:49:14;10.80;90.20
34644;DHT22;26931;43.498;-1.506;2023-04-06T00:51:40;10.70;90.10
34644;DHT22;26931;43.498;-1.506;2023-04-06T00:54:08;10.70;90.20
34644;DHT22;26931;43.498;-1.506;2023-04-06T00:56:34;10.70;90.30
34644;DHT22;26931;43.498;-1.506;2023-04-06T00:59:00;10.60;90.30
34644;DHT22;26931;43.498;-1.506;2023-04-06T01:01:26;10.60;90.40
34644;DHT22;26931;43.498;-1.506;2023-04-06T01:03:53;10.60;90.40
34644;DHT22;26931;43.498;-1.506;2023-04-06T01:06:20;10.50;90.50
34644;DHT22;26931;43.498;-1.506;2023-04-06T01:08:47;10.50;90.60
34644;DHT22;26931;43.498;-1.506;2023-04-06T01:11:12;10.50;90.60
34644;DHT22;26931;43.498;-1.506;2023-04-06T01:13:38;10.40;90.70
34644;DHT22;26931;43.498;-1.506;2023-04-06T01:16:04;10.40;90.80
34644;DHT22;26931;43.498;-1.506;2023-04-06T01:18:31;10.60;90.70
34644;DHT22;26931;43.498;-1.506;2023-04-06T01:20:56;10.70;90.70
34644;DHT22;26931;43.498;-1.506;2023-04-06T01:23:23;10.60;90.50
34644;DHT22;26931;43.498;-1.506;2023-04-06T01:25:49;10.60;90.60
34644;DHT22;26931;43.498;-1.506;2023-04-06T01:28:15;10.60;90.50
34644;DHT22;26931;43.498;-1.506;2023-04-06T01:30:41;10.60;90.50
34644;DHT22;26931;43.498;-1.506;2023-04-06T01:33:07;10.40;90.60
34644;DHT22;26931;43.498;-1.506;2023-04-06T01:35:33;10.50;90.70
34644;DHT22;26931;43.498;-1.506;2023-04-06T01:37:59;10.40;90.80
34644;DHT22;26931;43.498;-1.506;2023-04-06T01:40:25;10.40;90.80
34644;DHT22;26931;43.498;-1.506;2023-04-06T01:42:51;10.40;90.90
34644;DHT22;26931;43.498;-1.506;2023-04-06T01:45:16;10.40;90.90
34644;DHT22;26931;43.498;-1.506;2023-04-06T01:47:42;10.40;91.00
34644;DHT22;26931;43.498;-1.506;2023-04-06T01:50:08;10.50;90.90
34644;DHT22;26931;43.498;-1.506;2023-04-06T01:52:34;10.50;90.80
34644;DHT22;26931;43.498;-1.506;2023-04-06T01:55:00;10.60;90.80
34644;DHT22;26931;43.498;-1.506;2023-04-06T01:57:26;10.60;90.70
34644;DHT22;26931;43.498;-1.506;2023-04-06T01:59:52;10.60;90.70
34644;DHT22;26931;43.498;-1.506;2023-04-06T02:02:18;10.70;90.90
34644;DHT22;26931;43.498;-1.506;2023-04-06T02:04:44;10.60;90.70
34644;DHT22;26931;43.498;-1.506;2023-04-06T02:07:10;10.60;90.70
34644;DHT22;26931;43.498;-1.506;2023-04-06T02:09:36;10.40;90.70
34644;DHT22;26931;43.498;-1.506;2023-04-06T02:12:02;10.50;90.70
34644;DHT22;26931;43.498;-1.506;2023-04-06T02:14:27;10.40;90.80
34644;DHT22;26931;43.498;-1.506;2023-04-06T02:16:53;10.50;90.90
34644;DHT22;26931;43.498;-1.506;2023-04-06T02:19:19;10.40;90.80
34644;DHT22;26931;43.498;-1.506;2023-04-06T02:21:45;10.50;90.80
34644;DHT22;26931;43.498;-1.506;2023-04-06T02:24:11;10.40;90.80
34644;DHT22;26931;43.498;-1.506;2023-04-06T02:26:37;10.40;90.90
34644;DHT22;26931;43.498;-1.506;2023-04-06T02:29:03;10.40;91.00
34644;DHT22;26931;43.498;-1.506;2023-04-06T02:31:29;10.40;90.90
34644;DHT22;26931;43.498;-1.506;2023-04-06T02:33:55;10.40;91.00
34644;DHT22;26931;43.498;-1.506;2023-04-06T02:36:21;10.70;91.10
34644;DHT22;26931;43.498;-1.506;2023-04-06T02:38:47;10.50;90.90
34644;DHT22;26931;43.498;-1.506;2023-04-06T02:41:12;10.40;90.90
34644;DHT22;26931;43.498;-1.506;2023-04-06T02:43:38;10.30;90.90
34644;DHT22;26931;43.498;-1.506;2023-04-06T02:46:04;10.40;91.10
34644;DHT22;26931;43.498;-1.506;2023-04-06T02:48:30;10.20;91.00
34644;DHT22;26931;43.498;-1.506;2023-04-06T02:50:56;10.20;91.20
34644;DHT22;26931;43.498;-1.506;2023-04-06T02:53:22;10.30;91.10
34644;DHT22;26931;43.498;-1.506;2023-04-06T02:55:48;10.30;91.20
34644;DHT22;26931;43.498;-1.506;2023-04-06T02:58:14;10.50;91.20
34644;DHT22;26931;43.498;-1.506;2023-04-06T03:00:40;10.60;91.20
34644;DHT22;26931;43.498;-1.506;2023-04-06T03:03:06;10.60;91.20
34644;DHT22;26931;43.498;-1.506;2023-04-06T03:05:32;10.60;91.10
34644;DHT22;26931;43.498;-1.506;2023-04-06T03:07:58;10.40;91.40
34644;DHT22;26931;43.498;-1.506;2023-04-06T03:10:24;10.30;91.20
34644;DHT22;26931;43.498;-1.506;2023-04-06T03:12:50;10.30;91.30
34644;DHT22;26931;43.498;-1.506;2023-04-06T03:15:16;10.30;91.30
34644;DHT22;26931;43.498;-1.506;2023-04-06T03:17:42;10.20;91.30
34644;DHT22;26931;43.498;-1.506;2023-04-06T03:20:08;10.30;91.30
34644;DHT22;26931;43.498;-1.506;2023-04-06T03:22:34;10.30;91.30
34644;DHT22;26931;43.498;-1.506;2023-04-06T03:25:00;10.20;91.40
34644;DHT22;26931;43.498;-1.506;2023-04-06T03:27:26;10.20;91.40
34644;DHT22;26931;43.498;-1.506;2023-04-06T03:29:51;10.20;91.40
34644;DHT22;26931;43.498;-1.506;2023-04-06T03:32:17;10.20;91.50
34644;DHT22;26931;43.498;-1.506;2023-04-06T03:34:43;10.20;91.60
34644;DHT22;26931;43.498;-1.506;2023-04-06T03:37:09;10.20;91.70
34644;DHT22;26931;43.498;-1.506;2023-04-06T03:39:35;10.20;91.70
34644;DHT22;26931;43.498;-1.506;2023-04-06T03:42:01;10.30;91.60
34644;DHT22;26931;43.498;-1.506;2023-04-06T03:44:27;10.30;91.70
34644;DHT22;26931;43.498;-1.506;2023-04-06T03:46:53;10.40;91.60
34644;DHT22;26931;43.498;-1.506;2023-04-06T03:49:19;10.30;91.60
34644;DHT22;26931;43.498;-1.506;2023-04-06T03:51:45;10.30;91.60
34644;DHT22;26931;43.498;-1.506;2023-04-06T03:54:10;10.30;91.60
34644;DHT22;26931;43.498;-1.506;2023-04-06T03:56:36;10.30;91.70
34644;DHT22;26931;43.498;-1.506;2023-04-06T03:59:02;10.50;91.70
34644;DHT22;26931;43.498;-1.506;2023-04-06T04:01:28;10.30;91.60
34644;DHT22;26931;43.498;-1.506;2023-04-06T04:03:54;10.40;91.70
34644;DHT22;26931;43.498;-1.506;2023-04-06T04:06:20;10.40;91.60
34644;DHT22;26931;43.498;-1.506;2023-04-06T04:08:46;10.40;91.50
34644;DHT22;26931;43.498;-1.506;2023-04-06T04:11:12;10.40;91.50
34644;DHT22;26931;43.498;-1.506;2023-04-06T04:13:38;10.40;91.50
34644;DHT22;26931;43.498;-1.506;2023-04-06T04:16:04;10.40;91.60
34644;DHT22;26931;43.498;-1.506;2023-04-06T04:18:30;10.40;91.50
34644;DHT22;26931;43.498;-1.506;2023-04-06T04:20:56;10.40;91.60
34644;DHT22;26931;43.498;-1.506;2023-04-06T04:23:22;10.30;91.70
34644;DHT22;26931;43.498;-1.506;2023-04-06T04:25:48;10.30;91.70
34644;DHT22;26931;43.498;-1.506;2023-04-06T04:28:14;10.30;91.70
34644;DHT22;26931;43.498;-1.506;2023-04-06T04:30:40;10.30;91.70
34644;DHT22;26931;43.498;-1.506;2023-04-06T04:33:05;10.60;91.80
34644;DHT22;26931;43.498;-1.506;2023-04-06T04:35:31;10.50;91.70
34644;DHT22;26931;43.498;-1.506;2023-04-06T04:37:57;10.50;91.70
34644;DHT22;26931;43.498;-1.506;2023-04-06T04:40:23;10.50;91.60
34644;DHT22;26931;43.498;-1.506;2023-04-06T04:42:49;10.60;91.60
34644;DHT22;26931;43.498;-1.506;2023-04-06T04:45:16;10.50;91.60
34644;DHT22;26931;43.498;-1.506;2023-04-06T04:47:42;10.50;91.60
34644;DHT22;26931;43.498;-1.506;2023-04-06T04:50:08;10.40;91.70
34644;DHT22;26931;43.498;-1.506;2023-04-06T04:52:34;10.40;91.70
34644;DHT22;26931;43.498;-1.506;2023-04-06T04:55:00;10.50;91.80
34644;DHT22;26931;43.498;-1.506;2023-04-06T04:57:26;10.50;91.80
34644;DHT22;26931;43.498;-1.506;2023-04-06T04:59:52;10.50;91.70
34644;DHT22;26931;43.498;-1.506;2023-04-06T05:02:17;10.40;91.80
34644;DHT22;26931;43.498;-1.506;2023-04-06T05:04:43;10.50;91.80
34644;DHT22;26931;43.498;-1.506;2023-04-06T05:07:09;10.40;91.90
34644;DHT22;26931;43.498;-1.506;2023-04-06T05:09:35;10.50;91.80
34644;DHT22;26931;43.498;-1.506;2023-04-06T05:12:01;10.50;91.80
34644;DHT22;26931;43.498;-1.506;2023-04-06T05:14:27;10.50;91.80
34644;DHT22;26931;43.498;-1.506;2023-04-06T05:16:53;10.50;91.90
34644;DHT22;26931;43.498;-1.506;2023-04-06T05:19:19;10.50;91.80
34644;DHT22;26931;43.498;-1.506;2023-04-06T05:21:45;10.50;91.80
34644;DHT22;26931;43.498;-1.506;2023-04-06T05:24:11;10.50;92.00
34644;DHT22;26931;43.498;-1.506;2023-04-06T05:26:37;10.50;92.00
34644;DHT22;26931;43.498;-1.506;2023-04-06T05:29:03;10.50;91.90
34644;DHT22;26931;43.498;-1.506;2023-04-06T05:31:29;10.40;92.00
34644;DHT22;26931;43.498;-1.506;2023-04-06T05:33:55;10.40;92.10
34644;DHT22;26931;43.498;-1.506;2023-04-06T05:36:22;10.20;92.00
34644;DHT22;26931;43.498;-1.506;2023-04-06T05:38:47;10.40;92.20
34644;DHT22;26931;43.498;-1.506;2023-04-06T05:41:15;10.30;92.20
34644;DHT22;26931;43.498;-1.506;2023-04-06T05:43:41;10.40;92.30
34644;DHT22;26931;43.498;-1.506;2023-04-06T05:46:07;10.50;92.30
34644;DHT22;26931;43.498;-1.506;2023-04-06T05:48:33;10.70;92.30
34644;DHT22;26931;43.498;-1.506;2023-04-06T05:50:59;10.50;92.30
34644;DHT22;26931;43.498;-1.506;2023-04-06T05:53:26;10.50;92.30
34644;DHT22;26931;43.498;-1.506;2023-04-06T05:55:53;10.50;92.30
34644;DHT22;26931;43.498;-1.506;2023-04-06T05:58:19;10.50;92.50
34644;DHT22;26931;43.498;-1.506;2023-04-06T06:00:45;10.60;92.60
34644;DHT22;26931;43.498;-1.506;2023-04-06T06:03:12;10.60;92.90
34644;DHT22;26931;43.498;-1.506;2023-04-06T06:05:38;10.60;92.60
34644;DHT22;26931;43.498;-1.506;2023-04-06T06:08:03;10.60;92.70
34644;DHT22;26931;43.498;-1.506;2023-04-06T06:10:29;10.60;92.80
34644;DHT22;26931;43.498;-1.506;2023-04-06T06:12:55;10.50;92.70
34644;DHT22;26931;43.498;-1.506;2023-04-06T06:15:21;10.60;92.80
34644;DHT22;26931;43.498;-1.506;2023-04-06T06:17:47;10.70;92.80
34644;DHT22;26931;43.498;-1.506;2023-04-06T06:20:13;10.50;92.70
34644;DHT22;26931;43.498;-1.506;2023-04-06T06:22:38;10.70;92.80
34644;DHT22;26931;43.498;-1.506;2023-04-06T06:25:06;10.70;92.80
34644;DHT22;26931;43.498;-1.506;2023-04-06T06:27:32;10.60;92.70
34644;DHT22;26931;43.498;-1.506;2023-04-06T06:29:58;10.80;92.70
34644;DHT22;26931;43.498;-1.506;2023-04-06T06:32:24;10.80;92.70
34644;DHT22;26931;43.498;-1.506;2023-04-06T06:34:50;10.80;92.70
34644;DHT22;26931;43.498;-1.506;2023-04-06T06:37:16;10.70;92.60
34644;DHT22;26931;43.498;-1.506;2023-04-06T06:39:42;10.80;92.70
34644;DHT22;26931;43.498;-1.506;2023-04-06T06:42:08;10.90;92.60
34644;DHT22;26931;43.498;-1.506;2023-04-06T06:44:33;10.90;92.70
34644;DHT22;26931;43.498;-1.506;2023-04-06T06:46:59;11.00;92.60
34644;DHT22;26931;43.498;-1.506;2023-04-06T06:49:25;11.20;92.60
34644;DHT22;26931;43.498;-1.506;2023-04-06T06:51:51;11.00;92.50
34644;DHT22;26931;43.498;-1.506;2023-04-06T06:54:17;11.10;92.50
34644;DHT22;26931;43.498;-1.506;2023-04-06T06:56:43;11.10;92.40
34644;DHT22;26931;43.498;-1.506;2023-04-06T06:59:08;11.40;92.50
34644;DHT22;26931;43.498;-1.506;2023-04-06T07:01:35;11.20;92.50
34644;DHT22;26931;43.498;-1.506;2023-04-06T07:04:01;11.30;92.40
34644;DHT22;26931;43.498;-1.506;2023-04-06T07:06:27;11.30;92.40
34644;DHT22;26931;43.498;-1.506;2023-04-06T07:08:53;11.40;92.40
34644;DHT22;26931;43.498;-1.506;2023-04-06T07:11:19;11.50;92.30
34644;DHT22;26931;43.498;-1.506;2023-04-06T07:13:45;11.50;92.20
34644;DHT22;26931;43.498;-1.506;2023-04-06T07:16:11;11.60;92.20
34644;DHT22;26931;43.498;-1.506;2023-04-06T07:18:36;11.60;92.10
34644;DHT22;26931;43.498;-1.506;2023-04-06T07:21:02;11.70;92.20
34644;DHT22;26931;43.498;-1.506;2023-04-06T07:23:28;11.80;92.20
34644;DHT22;26931;43.498;-1.506;2023-04-06T07:25:54;11.80;92.10
34644;DHT22;26931;43.498;-1.506;2023-04-06T07:28:20;11.80;92.10
34644;DHT22;26931;43.498;-1.506;2023-04-06T07:30:46;11.90;92.10
34644;DHT22;26931;43.498;-1.506;2023-04-06T07:33:12;12.00;92.10
34644;DHT22;26931;43.498;-1.506;2023-04-06T07:35:38;12.10;92.10
34644;DHT22;26931;43.498;-1.506;2023-04-06T07:38:04;12.20;92.10
34644;DHT22;26931;43.498;-1.506;2023-04-06T07:40:30;12.30;92.10
34644;DHT22;26931;43.498;-1.506;2023-04-06T07:42:58;12.30;92.00
34644;DHT22;26931;43.498;-1.506;2023-04-06T07:45:23;12.60;92.10
34644;DHT22;26931;43.498;-1.506;2023-04-06T07:47:49;12.50;92.10
34644;DHT22;26931;43.498;-1.506;2023-04-06T07:50:15;12.50;92.10
34644;DHT22;26931;43.498;-1.506;2023-04-06T07:52:41;12.60;92.10
34644;DHT22;26931;43.498;-1.506;2023-04-06T07:55:07;12.70;92.10
34644;DHT22;26931;43.498;-1.506;2023-04-06T07:57:33;12.80;92.10
34644;DHT22;26931;43.498;-1.506;2023-04-06T07:59:59;12.80;92.10
34644;DHT22;26931;43.498;-1.506;2023-04-06T08:02:26;13.00;92.10
34644;DHT22;26931;43.498;-1.506;2023-04-06T08:04:52;12.90;92.00
34644;DHT22;26931;43.498;-1.506;2023-04-06T08:07:17;13.00;92.10
34644;DHT22;26931;43.498;-1.506;2023-04-06T08:09:43;13.00;92.10
34644;DHT22;26931;43.498;-1.506;2023-04-06T08:12:09;13.10;92.10
34644;DHT22;26931;43.498;-1.506;2023-04-06T08:14:35;13.10;92.10
34644;DHT22;26931;43.498;-1.506;2023-04-06T08:17:01;13.10;92.10
34644;DHT22;26931;43.498;-1.506;2023-04-06T08:19:27;13.20;92.10
34644;DHT22;26931;43.498;-1.506;2023-04-06T08:21:53;13.20;92.10
34644;DHT22;26931;43.498;-1.506;2023-04-06T08:24:19;13.30;92.10
34644;DHT22;26931;43.498;-1.506;2023-04-06T08:26:44;13.30;92.10
34644;DHT22;26931;43.498;-1.506;2023-04-06T08:29:10;13.30;92.10
34644;DHT22;26931;43.498;-1.506;2023-04-06T08:31:36;13.40;92.10
34644;DHT22;26931;43.498;-1.506;2023-04-06T08:34:03;13.50;92.00
34644;DHT22;26931;43.498;-1.506;2023-04-06T08:36:29;13.60;92.10
34644;DHT22;26931;43.498;-1.506;2023-04-06T08:38:56;13.70;92.00
34644;DHT22;26931;43.498;-1.506;2023-04-06T08:41:22;13.70;91.90
34644;DHT22;26931;43.498;-1.506;2023-04-06T08:43:54;14.00;92.00
34644;DHT22;26931;43.498;-1.506;2023-04-06T08:46:22;14.00;91.90
34644;DHT22;26931;43.498;-1.506;2023-04-06T08:48:54;14.10;91.80
34644;DHT22;26931;43.498;-1.506;2023-04-06T08:51:20;14.30;91.70
34644;DHT22;26931;43.498;-1.506;2023-04-06T08:53:47;14.40;91.60
34644;DHT22;26931;43.498;-1.506;2023-04-06T08:56:15;14.60;91.60
34644;DHT22;26931;43.498;-1.506;2023-04-06T08:58:41;14.70;91.40
34644;DHT22;26931;43.498;-1.506;2023-04-06T09:01:08;14.90;91.40
34644;DHT22;26931;43.498;-1.506;2023-04-06T09:03:37;15.10;91.30
34644;DHT22;26931;43.498;-1.506;2023-04-06T09:06:05;15.20;91.20
34644;DHT22;26931;43.498;-1.506;2023-04-06T09:08:32;15.40;91.10
34644;DHT22;26931;43.498;-1.506;2023-04-06T09:10:58;15.50;91.00
34644;DHT22;26931;43.498;-1.506;2023-04-06T09:13:24;15.80;90.90
34644;DHT22;26931;43.498;-1.506;2023-04-06T09:16:00;15.70;90.70
34644;DHT22;26931;43.498;-1.506;2023-04-06T09:18:32;15.90;90.70
34644;DHT22;26931;43.498;-1.506;2023-04-06T09:23:24;16.30;90.50
34644;DHT22;26931;43.498;-1.506;2023-04-06T09:25:50;16.20;90.30
34644;DHT22;26931;43.498;-1.506;2023-04-06T09:28:16;16.30;90.20
34644;DHT22;26931;43.498;-1.506;2023-04-06T09:30:48;16.40;90.10
34644;DHT22;26931;43.498;-1.506;2023-04-06T09:33:21;16.50;90.00
34644;DHT22;26931;43.498;-1.506;2023-04-06T09:35:50;16.60;89.80
34644;DHT22;26931;43.498;-1.506;2023-04-06T09:38:16;16.60;89.50
34644;DHT22;26931;43.498;-1.506;2023-04-06T09:40:51;16.80;89.30
34644;DHT22;26931;43.498;-1.506;2023-04-06T09:43:24;16.90;89.20
34644;DHT22;26931;43.498;-1.506;2023-04-06T09:45:50;17.20;89.00
34644;DHT22;26931;43.498;-1.506;2023-04-06T09:48:16;17.00;88.60
34644;DHT22;26931;43.498;-1.506;2023-04-06T09:50:42;17.10;88.50
34644;DHT22;26931;43.498;-1.506;2023-04-06T09:53:08;17.20;88.20
34644;DHT22;26931;43.498;-1.506;2023-04-06T09:55:42;17.30;88.10
34644;DHT22;26931;43.498;-1.506;2023-04-06T09:58:15;17.30;87.90
34644;DHT22;26931;43.498;-1.506;2023-04-06T10:00:47;17.40;87.80
34644;DHT22;26931;43.498;-1.506;2023-04-06T10:03:16;17.40;87.60
34644;DHT22;26931;43.498;-1.506;2023-04-06T10:05:50;17.40;87.40
34644;DHT22;26931;43.498;-1.506;2023-04-06T10:08:17;17.50;87.20
34644;DHT22;26931;43.498;-1.506;2023-04-06T10:10:44;17.50;87.00
34644;DHT22;26931;43.498;-1.506;2023-04-06T10:13:11;17.60;86.80
34644;DHT22;26931;43.498;-1.506;2023-04-06T10:15:37;17.60;86.80
34644;DHT22;26931;43.498;-1.506;2023-04-06T10:18:03;17.70;86.60
34644;DHT22;26931;43.498;-1.506;2023-04-06T10:25:28;17.70;85.90
34644;DHT22;26931;43.498;-1.506;2023-04-06T10:28:07;17.70;86.00
34644;DHT22;26931;43.498;-1.506;2023-04-06T10:30:34;17.80;86.60
34644;DHT22;26931;43.498;-1.506;2023-04-06T10:33:00;17.70;85.60
34644;DHT22;26931;43.498;-1.506;2023-04-06T10:35:38;17.70;85.30
34644;DHT22;26931;43.498;-1.506;2023-04-06T10:38:04;17.70;85.20
34644;DHT22;26931;43.498;-1.506;2023-04-06T10:40:30;17.90;85.10
34644;DHT22;26931;43.498;-1.506;2023-04-06T10:43:09;17.60;84.80
34644;DHT22;26931;43.498;-1.506;2023-04-06T10:45:35;17.70;84.90
34644;DHT22;26931;43.498;-1.506;2023-04-06T10:48:01;17.70;84.80
34644;DHT22;26931;43.498;-1.506;2023-04-06T10:50:47;17.60;84.80
34644;DHT22;26931;43.498;-1.506;2023-04-06T10:53:20;17.70;84.80
34644;DHT22;26931;43.498;-1.506;2023-04-06T10:55:46;17.80;84.60
34644;DHT22;26931;43.498;-1.506;2023-04-06T10:58:12;17.70;84.50
34644;DHT22;26931;43.498;-1.506;2023-04-06T11:00:43;17.70;84.40
34644;DHT22;26931;43.498;-1.506;2023-04-06T11:03:12;17.60;84.40
34644;DHT22;26931;43.498;-1.506;2023-04-06T11:05:38;17.60;84.40
34644;DHT22;26931;43.498;-1.506;2023-04-06T11:08:04;17.70;84.30
34644;DHT22;26931;43.498;-1.506;2023-04-06T11:10:30;17.60;84.20
34644;DHT22;26931;43.498;-1.506;2023-04-06T11:12:56;17.60;84.20
34644;DHT22;26931;43.498;-1.506;2023-04-06T11:15:22;17.60;84.30
34644;DHT22;26931;43.498;-1.506;2023-04-06T11:17:48;17.60;84.20
34644;DHT22;26931;43.498;-1.506;2023-04-06T11:20:15;17.60;84.00
34644;DHT22;26931;43.498;-1.506;2023-04-06T11:22:47;17.60;84.10
34644;DHT22;26931;43.498;-1.506;2023-04-06T11:25:13;17.50;84.20
34644;DHT22;26931;43.498;-1.506;2023-04-06T11:27:39;17.50;84.00
34644;DHT22;26931;43.498;-1.506;2023-04-06T11:30:05;17.50;84.10
34644;DHT22;26931;43.498;-1.506;2023-04-06T11:32:39;17.50;84.20
34644;DHT22;26931;43.498;-1.506;2023-04-06T11:35:05;17.40;84.00
34644;DHT22;26931;43.498;-1.506;2023-04-06T11:37:32;17.40;84.10
34644;DHT22;26931;43.498;-1.506;2023-04-06T11:39:58;17.40;84.00
34644;DHT22;26931;43.498;-1.506;2023-04-06T11:42:25;17.30;84.10
34644;DHT22;26931;43.498;-1.506;2023-04-06T11:44:51;17.40;84.20
34644;DHT22;26931;43.498;-1.506;2023-04-06T11:47:18;17.30;84.10
34644;DHT22;26931;43.498;-1.506;2023-04-06T11:49:44;17.20;84.10
34644;DHT22;26931;43.498;-1.506;2023-04-06T11:52:14;17.20;84.10
34644;DHT22;26931;43.498;-1.506;2023-04-06T11:54:40;17.10;84.20
34644;DHT22;26931;43.498;-1.506;2023-04-06T11:57:07;17.00;84.00
34644;DHT22;26931;43.498;-1.506;2023-04-06T11:59:36;17.00;84.10
34644;DHT22;26931;43.498;-1.506;2023-04-06T12:02:02;17.00;84.30
34644;DHT22;26931;43.498;-1.506;2023-04-06T12:04:28;16.90;84.50
34644;DHT22;26931;43.498;-1.506;2023-04-06T12:06:54;16.80;84.60
34644;DHT22;26931;43.498;-1.506;2023-04-06T12:09:20;16.80;84.80
34644;DHT22;26931;43.498;-1.506;2023-04-06T12:11:46;16.70;84.70
34644;DHT22;26931;43.498;-1.506;2023-04-06T12:14:12;16.70;84.80
34644;DHT22;26931;43.498;-1.506;2023-04-06T12:16:38;16.70;85.00
34644;DHT22;26931;43.498;-1.506;2023-04-06T12:19:04;16.70;85.00
34644;DHT22;26931;43.498;-1.506;2023-04-06T12:21:30;16.50;85.00
34644;DHT22;26931;43.498;-1.506;2023-04-06T12:23:57;16.70;85.30
34644;DHT22;26931;43.498;-1.506;2023-04-06T12:26:23;16.50;85.20
34644;DHT22;26931;43.498;-1.506;2023-04-06T12:28:50;16.60;85.30
34644;DHT22;26931;43.498;-1.506;2023-04-06T12:31:19;16.40;85.20
34644;DHT22;26931;43.498;-1.506;2023-04-06T12:33:48;16.30;85.10
34644;DHT22;26931;43.498;-1.506;2023-04-06T12:36:15;16.50;85.30
34644;DHT22;26931;43.498;-1.506;2023-04-06T12:38:41;16.30;85.10
34644;DHT22;26931;43.498;-1.506;2023-04-06T12:41:07;16.30;85.10
34644;DHT22;26931;43.498;-1.506;2023-04-06T12:43:33;16.30;85.00
34644;DHT22;26931;43.498;-1.506;2023-04-06T12:45:59;16.20;84.80
34644;DHT22;26931;43.498;-1.506;2023-04-06T12:48:25;16.20;84.50
34644;DHT22;26931;43.498;-1.506;2023-04-06T12:50:59;16.20;84.40
34644;DHT22;26931;43.498;-1.506;2023-04-06T12:53:25;16.20;84.30
34644;DHT22;26931;43.498;-1.506;2023-04-06T12:55:52;16.20;84.10
34644;DHT22;26931;43.498;-1.506;2023-04-06T12:58:18;16.50;84.30
34644;DHT22;26931;43.498;-1.506;2023-04-06T13:00:44;16.30;84.20
34644;DHT22;26931;43.498;-1.506;2023-04-06T13:03:10;16.30;84.20
34644;DHT22;26931;43.498;-1.506;2023-04-06T13:05:43;16.30;84.30
34644;DHT22;26931;43.498;-1.506;2023-04-06T13:08:08;16.30;84.40
34644;DHT22;26931;43.498;-1.506;2023-04-06T13:10:36;16.30;84.10
34644;DHT22;26931;43.498;-1.506;2023-04-06T13:13:02;16.20;83.90
34644;DHT22;26931;43.498;-1.506;2023-04-06T13:15:28;16.30;83.80
34644;DHT22;26931;43.498;-1.506;2023-04-06T13:17:55;16.30;83.50
34644;DHT22;26931;43.498;-1.506;2023-04-06T13:20:20;16.30;83.20
34644;DHT22;26931;43.498;-1.506;2023-04-06T13:22:46;16.50;83.10
34644;DHT22;26931;43.498;-1.506;2023-04-06T13:25:12;16.30;82.90
34644;DHT22;26931;43.498;-1.506;2023-04-06T13:27:38;16.40;82.80
34644;DHT22;26931;43.498;-1.506;2023-04-06T13:30:11;16.40;82.90
34644;DHT22;26931;43.498;-1.506;2023-04-06T13:32:37;16.40;83.20
34644;DHT22;26931;43.498;-1.506;2023-04-06T13:35:03;16.30;83.20
34644;DHT22;26931;43.498;-1.506;2023-04-06T13:37:29;16.30;83.40
34644;DHT22;26931;43.498;-1.506;2023-04-06T13:39:55;16.30;83.20
34644;DHT22;26931;43.498;-1.506;2023-04-06T13:42:21;16.30;83.10
34644;DHT22;26931;43.498;-1.506;2023-04-06T13:44:47;16.20;83.10
34644;DHT22;26931;43.498;-1.506;2023-04-06T13:47:12;16.20;84.20
34644;DHT22;26931;43.498;-1.506;2023-04-06T13:49:38;16.20;83.80
34644;DHT22;26931;43.498;-1.506;2023-04-06T13:52:04;16.40;83.90
34644;DHT22;26931;43.498;-1.506;2023-04-06T13:54:30;16.20;84.00
34644;DHT22;26931;43.498;-1.506;2023-04-06T13:56:56;16.20;84.10
34644;DHT22;26931;43.498;-1.506;2023-04-06T13:59:22;16.10;84.30
34644;DHT22;26931;43.498;-1.506;2023-04-06T14:01:48;16.20;84.30
34644;DHT22;26931;43.498;-1.506;2023-04-06T14:04:13;16.20;84.40
34644;DHT22;26931;43.498;-1.506;2023-04-06T14:06:39;16.20;84.80
34644;DHT22;26931;43.498;-1.506;2023-04-06T14:09:05;16.20;85.00
34644;DHT22;26931;43.498;-1.506;2023-04-06T14:11:31;16.10;85.20
34644;DHT22;26931;43.498;-1.506;2023-04-06T14:13:57;16.10;85.20
34644;DHT22;26931;43.498;-1.506;2023-04-06T14:16:23;16.10;85.40
34644;DHT22;26931;43.498;-1.506;2023-04-06T14:18:49;16.00;85.50
34644;DHT22;26931;43.498;-1.506;2023-04-06T14:21:14;16.10;85.60
34644;DHT22;26931;43.498;-1.506;2023-04-06T14:23:40;16.10;85.80
34644;DHT22;26931;43.498;-1.506;2023-04-06T14:26:07;16.10;85.90
34644;DHT22;26931;43.498;-1.506;2023-04-06T14:28:33;16.10;85.90
34644;DHT22;26931;43.498;-1.506;2023-04-06T14:31:00;16.10;85.80
34644;DHT22;26931;43.498;-1.506;2023-04-06T14:33:26;16.00;85.60
34644;DHT22;26931;43.498;-1.506;2023-04-06T14:35:52;15.90;85.60
34644;DHT22;26931;43.498;-1.506;2023-04-06T14:38:18;16.10;85.80
34644;DHT22;26931;43.498;-1.506;2023-04-06T14:40:44;16.30;85.90
34644;DHT22;26931;43.498;-1.506;2023-04-06T14:43:10;16.10;85.70
34644;DHT22;26931;43.498;-1.506;2023-04-06T14:45:36;16.10;85.70
34644;DHT22;26931;43.498;-1.506;2023-04-06T14:48:04;16.20;85.80
34644;DHT22;26931;43.498;-1.506;2023-04-06T14:50:37;16.00;85.50
34644;DHT22;26931;43.498;-1.506;2023-04-06T14:53:03;16.00;85.40
34644;DHT22;26931;43.498;-1.506;2023-04-06T14:55:29;16.00;85.30
34644;DHT22;26931;43.498;-1.506;2023-04-06T14:57:55;16.20;85.40
34644;DHT22;26931;43.498;-1.506;2023-04-06T15:00:21;16.10;85.40
34644;DHT22;26931;43.498;-1.506;2023-04-06T15:02:47;16.10;85.30
34644;DHT22;26931;43.498;-1.506;2023-04-06T15:05:13;16.00;85.10
34644;DHT22;26931;43.498;-1.506;2023-04-06T15:07:39;16.10;84.90
34644;DHT22;26931;43.498;-1.506;2023-04-06T15:10:05;16.10;84.70
34644;DHT22;26931;43.498;-1.506;2023-04-06T15:12:31;16.10;84.50
34644;DHT22;26931;43.498;-1.506;2023-04-06T15:14:58;16.10;84.30
34644;DHT22;26931;43.498;-1.506;2023-04-06T15:17:24;16.20;84.20